createdAt,value
2023-04-18T00:01:54.283Z,94779.03
2023-04-18T00:04:22.515Z,94771.16
2023-04-18T00:06:50.597Z,94770.69
2023-04-18T00:09:18.795Z,94766.56
2023-04-18T00:11:48.553Z,94778.03
2023-04-18T00:14:16.613Z,94772.56
2023-04-18T00:16:44.552Z,94774.63
2023-04-18T00:19:12.626Z,94784.81
2023-04-18T00:21:45.221Z,94787.34
2023-04-18T00:24:13.612Z,94784.41
2023-04-18T00:26:41.728Z,94789.13
2023-04-18T00:29:11.104Z,94790.72
2023-04-18T00:31:39.197Z,94790.81
2023-04-18T00:34:07.393Z,94791.59
2023-04-18T00:36:35.553Z,94790.81
2023-04-18T00:39:03.601Z,94781.97
2023-04-18T00:41:31.932Z,94788.69
2023-04-18T00:43:59.891Z,94792.09
2023-04-18T00:46:29.243Z,94783.09
2023-04-18T00:48:57.547Z,94791.66
2023-04-18T00:51:26.457Z,94786.94
2023-04-18T00:53:55.092Z,94788.38
2023-04-18T00:56:25.997Z,94775.50
2023-04-18T00:58:54.631Z,94771.22
2023-04-18T01:01:22.712Z,94773.91
2023-04-18T01:03:52.151Z,94771.44
2023-04-18T01:06:20.649Z,94775.38
2023-04-18T01:08:48.655Z,94767.72
2023-04-18T01:11:16.621Z,94771.88
2023-04-18T01:13:44.604Z,94773.03
2023-04-18T01:16:12.612Z,94766.06
2023-04-18T01:18:40.615Z,94773.69
2023-04-18T01:21:10.315Z,94766.84
2023-04-18T01:23:38.572Z,94764.94
2023-04-18T01:26:08.433Z,94765.38
2023-04-18T01:28:38.265Z,94766.50
2023-04-18T01:31:06.590Z,94769.19
2023-04-18T01:33:34.754Z,94772.22
2023-04-18T01:36:02.770Z,94768.09
2023-04-18T01:38:30.687Z,94775.03
2023-04-18T01:40:58.658Z,94764.94
2023-04-18T01:43:28.138Z,94769.88
2023-04-18T01:45:56.060Z,94769.53
2023-04-18T01:48:24.035Z,94763.94
2023-04-18T01:50:52.001Z,94762.47
2023-04-18T01:53:19.928Z,94758.63
2023-04-18T01:55:50.676Z,94765.47
2023-04-18T01:58:23.153Z,94757.84
2023-04-18T02:00:54.185Z,94752.81
2023-04-18T02:03:22.499Z,94751.34
2023-04-18T02:05:50.604Z,94755.94
2023-04-18T02:08:18.655Z,94757.06
2023-04-18T02:10:46.664Z,94761.75
2023-04-18T02:13:15.259Z,94759.53
2023-04-18T02:15:45.018Z,94749.44
2023-04-18T02:18:14.416Z,94758.31
2023-04-18T02:20:42.449Z,94757.97
2023-04-18T02:23:10.736Z,94767.41
2023-04-18T02:25:38.747Z,94766.94
2023-04-18T02:28:06.746Z,94774.25
2023-04-18T02:30:35.132Z,94766.41
2023-04-18T02:33:03.190Z,94774.50
2023-04-18T02:35:32.593Z,94770.88
2023-04-18T02:38:00.753Z,94774.38
2023-04-18T02:40:28.798Z,94772.38
2023-04-18T02:42:56.760Z,94773.81
2023-04-18T02:45:24.636Z,94773.91
2023-04-18T02:47:56.066Z,94767.00
2023-04-18T02:50:25.249Z,94762.72
2023-04-18T02:52:54.570Z,94763.06
2023-04-18T02:55:23.113Z,94770.78
2023-04-18T02:57:51.138Z,94767.00
2023-04-18T03:00:19.797Z,94770.78
2023-04-18T03:02:47.778Z,94769.69
2023-04-18T03:05:15.959Z,94771.44
2023-04-18T03:07:43.952Z,94776.84
2023-04-18T03:10:13.681Z,94776.63
2023-04-18T03:12:41.718Z,94773.59
2023-04-18T03:15:10.460Z,94783.44
2023-04-18T03:17:38.514Z,94783.00
2023-04-18T03:20:08.122Z,94784.91
2023-04-18T03:22:36.030Z,94789.53
2023-04-18T03:25:04.043Z,94794.91
2023-04-18T03:27:33.446Z,94795.66
2023-04-18T03:30:01.366Z,94795.66
2023-04-18T03:32:29.363Z,94808.03
2023-04-18T03:34:57.310Z,94804.19
2023-04-18T03:37:25.267Z,94802.63
2023-04-18T03:39:53.257Z,94808.59
2023-04-18T03:42:21.328Z,94803.97
2023-04-18T03:44:50.667Z,94807.47
2023-04-18T03:47:18.631Z,94812.06
2023-04-18T03:49:46.572Z,94803.53
2023-04-18T03:52:16.062Z,94800.16
2023-04-18T03:54:44.179Z,94796.81
2023-04-18T03:57:12.120Z,94804.91
2023-04-18T03:59:40.175Z,94808.69
2023-04-18T04:02:09.774Z,94803.75
2023-04-18T04:04:37.824Z,94806.13
2023-04-18T04:07:05.999Z,94803.53
2023-04-18T04:09:33.979Z,94801.72
2023-04-18T04:12:02.444Z,94807.13
2023-04-18T04:14:30.649Z,94810.94
2023-04-18T04:16:58.606Z,94810.94
2023-04-18T04:19:28.061Z,94813.84
2023-04-18T04:21:55.966Z,94805.56
2023-04-18T04:24:23.848Z,94817.19
2023-04-18T04:26:52.049Z,94812.50
2023-04-18T04:29:21.639Z,94820.69
2023-04-18T04:31:49.623Z,94820.81
2023-04-18T04:34:17.976Z,94818.13
2023-04-18T04:36:48.257Z,94819.00
2023-04-18T04:39:17.553Z,94818.13
2023-04-18T04:41:47.267Z,94824.75
2023-04-18T04:44:18.203Z,94835.38
2023-04-18T04:46:47.919Z,94829.66
2023-04-18T04:49:16.172Z,94824.50
2023-04-18T04:51:44.438Z,94833.16
2023-04-18T04:54:14.233Z,94834.72
2023-04-18T04:56:42.476Z,94832.94
2023-04-18T04:59:10.438Z,94833.38
2023-04-18T05:01:45.425Z,94830.91
2023-04-18T05:04:14.377Z,94837.66
2023-04-18T05:06:43.019Z,94838.66
2023-04-18T05:09:11.153Z,94838.75
2023-04-18T05:11:40.553Z,94838.88
2023-04-18T05:14:08.825Z,94845.03
2023-04-18T05:16:37.081Z,94850.66
2023-04-18T05:19:05.324Z,94852.13
2023-04-18T05:21:33.595Z,94846.75
2023-04-18T05:24:01.573Z,94851.13
2023-04-18T05:26:29.526Z,94853.34
2023-04-18T05:28:58.961Z,94840.78
2023-04-18T05:31:28.938Z,94845.72
2023-04-18T05:33:57.081Z,94846.38
2023-04-18T05:36:25.104Z,94852.22
2023-04-18T05:38:53.034Z,94857.16
2023-04-18T05:41:21.016Z,94850.31
2023-04-18T05:44:01.733Z,94855.25
2023-04-18T05:46:34.636Z,94857.28
2023-04-18T05:49:03.661Z,94861.31
2023-04-18T05:51:32.087Z,94856.72
2023-04-18T05:54:00.057Z,94859.19
2023-04-18T05:56:28.120Z,94865.91
2023-04-18T05:58:56.137Z,94856.13
2023-04-18T06:01:24.541Z,94863.22
2023-04-18T06:03:55.772Z,94860.50
2023-04-18T06:06:24.105Z,94869.97
2023-04-18T06:08:52.178Z,94863.88
2023-04-18T06:11:21.679Z,94858.19
2023-04-18T06:13:51.153Z,94859.41
2023-04-18T06:16:19.620Z,94860.44
2023-04-18T06:18:47.670Z,94865.03
2023-04-18T06:21:17.066Z,94852.91
2023-04-18T06:23:45.358Z,94863.66
2023-04-18T06:26:13.454Z,94868.75
2023-04-18T06:28:41.466Z,94867.94
2023-04-18T06:31:09.509Z,94867.03
2023-04-18T06:33:38.771Z,94866.25
2023-04-18T06:36:09.035Z,94862.78
2023-04-18T06:38:38.650Z,94856.28
2023-04-18T06:41:06.983Z,94860.88
2023-04-18T06:43:35.998Z,94861.41
2023-04-18T06:46:05.653Z,94859.88
2023-04-18T06:48:33.788Z,94867.22
2023-04-18T06:51:02.066Z,94869.72
2023-04-18T06:53:30.272Z,94859.41
2023-04-18T06:55:59.637Z,94874.00
2023-04-18T06:58:27.696Z,94860.97
2023-04-18T07:00:55.842Z,94857.25
2023-04-18T07:03:24.029Z,94870.16
2023-04-18T07:05:52.116Z,94875.56
2023-04-18T07:08:20.042Z,94875.25
2023-04-18T07:10:49.984Z,94870.41
2023-04-18T07:13:19.307Z,94870.28
2023-04-18T07:15:47.335Z,94872.91
2023-04-18T07:18:23.272Z,94875.56
2023-04-18T07:20:58.567Z,94880.72
2023-04-18T07:23:26.887Z,94876.25
2023-04-18T07:25:54.892Z,94873.53
2023-04-18T07:28:24.191Z,94870.19
2023-04-18T07:30:52.182Z,94875.69
2023-04-18T07:33:20.272Z,94878.50
2023-04-18T07:35:49.984Z,94880.63
2023-04-18T07:38:18.184Z,94874.00
2023-04-18T07:40:46.443Z,94874.13
2023-04-18T07:43:14.420Z,94882.06
2023-04-18T07:45:43.916Z,94875.88
2023-04-18T07:48:12.360Z,94878.06
2023-04-18T07:50:40.348Z,94871.75
2023-04-18T07:53:09.216Z,94880.50
2023-04-18T07:55:37.116Z,94883.94
2023-04-18T07:58:05.150Z,94884.78
2023-04-18T08:00:33.441Z,94891.06
2023-04-18T08:03:03.000Z,94893.50
2023-04-18T08:05:31.066Z,94887.03
2023-04-18T08:07:59.080Z,94893.19
2023-04-18T08:10:27.060Z,94895.91
2023-04-18T08:12:55.099Z,94896.13
2023-04-18T08:15:23.057Z,94888.38
2023-04-18T08:17:52.128Z,94903.06
2023-04-18T08:20:21.584Z,94880.06
2023-04-18T08:23:04.723Z,94893.91
2023-04-18T08:25:36.465Z,94885.38
2023-04-18T08:28:05.000Z,94889.88
2023-04-18T08:30:33.050Z,94892.31
2023-04-18T08:33:01.596Z,94868.91
2023-04-18T08:35:31.120Z,94887.19
2023-04-18T08:37:59.159Z,94869.09
2023-04-18T08:40:27.034Z,94887.34
2023-04-18T08:42:56.651Z,94892.94
2023-04-18T08:45:25.139Z,94887.63
2023-04-18T08:47:53.470Z,94878.91
2023-04-18T08:50:21.808Z,94886.47
2023-04-18T08:52:52.499Z,94880.63
2023-04-18T08:55:22.455Z,94869.91
2023-04-18T08:57:54.307Z,94877.41
2023-04-18T09:00:23.673Z,94881.22
2023-04-18T09:02:57.172Z,94874.66
2023-04-18T09:05:27.040Z,94875.78
2023-04-18T09:07:57.373Z,94843.88
2023-04-18T09:10:29.989Z,94830.84
2023-04-18T09:12:59.422Z,94839.28
2023-04-18T09:15:29.280Z,94820.03
2023-04-18T09:17:58.968Z,94847.84
2023-04-18T09:20:30.900Z,94841.81
2023-04-18T09:23:00.846Z,94858.94
2023-04-18T09:25:30.563Z,94855.13
2023-04-18T09:28:01.103Z,94841.53
2023-04-18T09:30:38.200Z,94856.50
2023-04-18T09:33:09.656Z,94856.69
2023-04-18T09:35:38.469Z,94836.13
2023-04-18T09:38:09.681Z,94868.03
2023-04-18T09:40:37.881Z,94856.66
2023-04-18T09:43:20.448Z,94859.00
2023-04-18T09:45:48.970Z,94856.00
2023-04-18T09:48:17.103Z,94814.19
2023-04-18T09:50:47.050Z,94837.28
2023-04-18T09:53:21.055Z,94850.00
2023-04-18T09:55:52.434Z,94851.38
2023-04-18T09:58:23.046Z,94847.06
2023-04-18T10:00:51.592Z,94840.59
2023-04-18T10:03:21.002Z,94845.19
2023-04-18T10:05:49.862Z,94847.06
2023-04-18T10:08:19.822Z,94844.06
2023-04-18T10:10:47.826Z,94849.44
2023-04-18T10:13:16.404Z,94837.72
2023-04-18T10:15:45.659Z,94837.25
2023-04-18T10:18:16.403Z,94847.72
2023-04-18T10:20:44.639Z,94831.41
2023-04-18T10:23:38.531Z,94835.25
2023-04-18T10:26:07.348Z,94838.19
2023-04-18T10:28:59.664Z,94816.31
2023-04-18T10:31:29.379Z,94850.38
2023-04-18T10:36:30.526Z,94830.81
2023-04-18T10:39:04.303Z,94832.53
2023-04-18T10:41:33.327Z,94830.25
2023-04-18T10:44:22.004Z,94823.94
2023-04-18T10:47:23.201Z,94824.28
2023-04-18T10:49:59.432Z,94829.13
2023-04-18T10:52:28.755Z,94827.53
2023-04-18T10:55:20.383Z,94826.44
2023-04-18T10:57:50.522Z,94821.50
2023-04-18T11:00:21.627Z,94809.91
2023-04-18T11:02:51.758Z,94813.47
2023-04-18T11:05:22.347Z,94816.09
2023-04-18T11:07:50.570Z,94813.09
2023-04-18T11:10:22.177Z,94804.94
2023-04-18T11:12:50.551Z,94810.22
2023-04-18T11:15:22.122Z,94800.88
2023-04-18T11:18:01.003Z,94797.00
2023-04-18T11:20:30.008Z,94787.25
2023-04-18T11:23:00.094Z,94798.97
2023-04-18T11:25:32.068Z,94802.13
2023-04-18T11:28:01.525Z,94791.78
2023-04-18T11:30:31.567Z,94741.13
2023-04-18T11:32:59.525Z,94784.63
2023-04-18T11:35:27.983Z,94793.50
2023-04-18T11:37:56.214Z,94797.03
2023-04-18T11:40:24.491Z,94789.03
2023-04-18T11:42:55.786Z,94786.00
2023-04-18T11:45:23.781Z,94803.78
2023-04-18T11:47:58.213Z,94800.06
2023-04-18T11:50:26.945Z,94808.13
2023-04-18T11:52:56.057Z,94796.66
2023-04-18T11:55:27.278Z,94810.47
2023-04-18T11:57:57.838Z,94794.66
2023-04-18T12:00:33.960Z,94806.34
2023-04-18T12:03:02.937Z,94813.56
2023-04-18T12:05:32.762Z,94812.34
2023-04-18T12:08:08.153Z,94809.78
2023-04-18T12:10:37.754Z,94808.59
2023-04-18T12:13:09.731Z,94816.50
2023-04-18T12:15:40.717Z,94816.19
2023-04-18T12:18:12.330Z,94811.81
2023-04-18T12:20:46.028Z,94808.06
2023-04-18T12:23:34.033Z,94802.88
2023-04-18T12:26:03.781Z,94815.69
2023-04-18T12:28:34.652Z,94814.44
2023-04-18T12:31:03.166Z,94805.97
2023-04-18T12:33:31.892Z,94758.47
2023-04-18T12:36:00.775Z,94811.16
2023-04-18T12:38:28.888Z,94816.38
2023-04-18T12:40:56.844Z,94812.53
2023-04-18T12:43:25.732Z,94803.91
2023-04-18T12:45:55.352Z,94814.81
2023-04-18T12:48:23.579Z,94826.97
2023-04-18T12:50:51.721Z,94827.97
2023-04-18T12:53:20.166Z,94821.00
2023-04-18T12:55:48.273Z,94801.19
2023-04-18T12:58:18.764Z,94742.16
2023-04-18T13:00:47.032Z,94821.13
2023-04-18T13:03:16.865Z,94827.16
2023-04-18T13:05:45.107Z,94833.78
2023-04-18T13:08:17.622Z,94814.31
2023-04-18T13:10:46.466Z,94828.16
2023-04-18T13:13:14.632Z,94823.84
2023-04-18T13:15:44.728Z,94826.59
2023-04-18T13:18:12.892Z,94833.03
2023-04-18T13:20:42.422Z,94823.13
2023-04-18T13:23:10.367Z,94829.09
2023-04-18T13:25:38.361Z,94818.31
2023-04-18T13:28:06.652Z,94803.66
2023-04-18T13:30:38.677Z,94829.84
2023-04-18T13:33:06.740Z,94828.41
2023-04-18T13:35:34.804Z,94824.19
2023-04-18T13:38:04.281Z,94817.56
2023-04-18T13:40:33.529Z,94797.97
2023-04-18T13:43:02.283Z,94816.38
2023-04-18T13:45:32.641Z,94822.78
2023-04-18T13:48:00.779Z,94825.16
2023-04-18T13:50:28.953Z,94821.56
2023-04-18T13:52:56.994Z,94829.22
2023-04-18T13:55:27.112Z,94827.66
2023-04-18T13:57:55.215Z,94822.00
2023-04-18T14:00:23.244Z,94826.31
2023-04-18T14:02:51.563Z,94822.16
2023-04-18T14:05:19.831Z,94829.03
2023-04-18T14:07:48.724Z,94838.53
2023-04-18T14:10:16.774Z,94834.72
2023-04-18T14:12:46.053Z,94838.72
2023-04-18T14:15:14.031Z,94835.72
2023-04-18T14:17:44.129Z,94813.69
2023-04-18T14:20:15.744Z,94808.19
2023-04-18T14:22:43.820Z,94832.09
2023-04-18T14:25:11.815Z,94840.75
2023-04-18T14:27:40.434Z,94843.59
2023-04-18T14:30:11.217Z,94801.16
2023-04-18T14:32:39.293Z,94853.16
2023-04-18T14:35:08.329Z,94842.75
2023-04-18T14:37:36.299Z,94849.31
2023-04-18T14:40:05.911Z,94854.94
2023-04-18T14:42:33.863Z,94847.78
2023-04-18T14:45:01.824Z,94842.53
2023-04-18T14:47:34.319Z,94852.28
2023-04-18T14:50:02.343Z,94838.41
2023-04-18T14:52:30.383Z,94846.13
2023-04-18T14:54:58.657Z,94861.72
2023-04-18T14:57:26.788Z,94859.13
2023-04-18T14:59:55.180Z,94844.13
2023-04-18T15:02:23.250Z,94842.63
2023-04-18T15:04:53.498Z,94858.84
2023-04-18T15:07:21.771Z,94861.72
2023-04-18T15:09:49.785Z,94866.56
2023-04-18T15:12:17.725Z,94869.84
2023-04-18T15:14:45.671Z,94866.84
2023-04-18T15:17:13.581Z,94877.81
2023-04-18T15:19:42.913Z,94877.44
2023-04-18T15:22:12.649Z,94878.09
2023-04-18T15:24:41.543Z,94881.94
2023-04-18T15:27:09.740Z,94882.47
2023-04-18T15:29:38.363Z,94889.69
2023-04-18T15:32:06.638Z,94870.03
2023-04-18T15:34:34.657Z,94894.94
2023-04-18T15:37:02.761Z,94870.75
2023-04-18T15:39:32.230Z,94838.50
2023-04-18T15:42:00.313Z,94901.88
2023-04-18T15:44:30.613Z,94894.03
2023-04-18T15:47:01.143Z,94867.97
2023-04-18T15:49:29.107Z,94893.75
2023-04-18T15:51:57.473Z,94879.22
2023-04-18T15:54:25.597Z,94896.56
2023-04-18T15:56:55.692Z,94905.03
2023-04-18T15:59:23.754Z,94863.28
2023-04-18T16:01:52.233Z,94892.75
2023-04-18T16:04:20.247Z,94902.31
2023-04-18T16:06:48.647Z,94902.97
2023-04-18T16:09:16.679Z,94913.72
2023-04-18T16:11:44.621Z,94911.09
2023-04-18T16:14:15.346Z,94908.28
2023-04-18T16:16:43.894Z,94913.16
2023-04-18T16:19:11.975Z,94913.16
2023-04-18T16:21:40.185Z,94919.84
2023-04-18T16:24:09.556Z,94923.06
2023-04-18T16:26:37.607Z,94926.22
2023-04-18T16:29:05.631Z,94910.84
2023-04-18T16:31:35.381Z,94925.19
2023-04-18T16:34:04.336Z,94920.16
2023-04-18T16:36:35.481Z,94911.69
2023-04-18T16:39:04.826Z,94924.53
2023-04-18T16:41:32.939Z,94922.25
2023-04-18T16:44:00.809Z,94914.16
2023-04-18T16:46:31.402Z,94924.78
2023-04-18T16:49:01.569Z,94890.22
2023-04-18T16:51:29.900Z,94912.75
2023-04-18T16:53:57.966Z,94919.50
2023-04-18T16:56:27.292Z,94924.22
2023-04-18T16:58:55.223Z,94935.69
2023-04-18T17:01:23.284Z,94925.19
2023-04-18T17:03:51.582Z,94939.09
2023-04-18T17:06:22.891Z,94939.56
2023-04-18T17:08:55.632Z,94930.59
2023-04-18T17:11:23.728Z,94940.00
2023-04-18T17:13:52.707Z,94945.63
2023-04-18T17:16:21.222Z,94871.09
2023-04-18T17:18:49.244Z,94944.88
2023-04-18T17:21:17.266Z,94952.75
2023-04-18T17:23:47.623Z,94953.94
2023-04-18T17:26:16.089Z,94965.31
2023-04-18T17:28:44.674Z,94950.59
2023-04-18T17:31:15.428Z,94959.13
2023-04-18T17:33:43.719Z,94957.31
2023-04-18T17:36:14.320Z,94964.50
2023-04-18T17:38:48.868Z,94953.94
2023-04-18T17:41:20.937Z,94905.84
2023-04-18T17:43:52.232Z,94906.66
2023-04-18T17:46:23.036Z,94959.81
2023-04-18T17:48:52.527Z,94959.38
2023-04-18T17:51:30.944Z,94962.34
2023-04-18T17:54:00.723Z,94954.94
2023-04-18T17:56:30.583Z,94974.19
2023-04-18T17:58:58.557Z,94976.09
2023-04-18T18:01:28.837Z,94969.63
2023-04-18T18:03:57.322Z,94968.88
2023-04-18T18:06:27.871Z,94988.22
2023-04-18T18:08:56.002Z,94986.41
2023-04-18T18:11:24.266Z,94986.56
2023-04-18T18:13:55.560Z,94986.41
2023-04-18T18:16:24.180Z,94981.03
2023-04-18T18:18:52.359Z,94989.47
2023-04-18T18:21:20.544Z,94994.63
2023-04-18T18:23:48.543Z,95000.00
2023-04-18T18:26:16.621Z,95002.38
2023-04-18T18:28:44.605Z,95001.56
2023-04-18T18:31:13.955Z,95004.63
2023-04-18T18:33:41.899Z,95013.00
2023-04-18T18:36:09.891Z,95011.56
2023-04-18T18:38:37.899Z,95004.28
2023-04-18T18:41:06.026Z,95008.56
2023-04-18T18:43:34.153Z,95014.16
2023-04-18T18:46:02.163Z,94990.44
2023-04-18T18:48:32.797Z,94985.03
2023-04-18T18:51:00.819Z,95004.84
2023-04-18T18:53:29.130Z,95013.72
2023-04-18T18:55:57.132Z,95017.97
2023-04-18T18:58:25.156Z,95010.22
2023-04-18T19:00:53.798Z,95008.88
2023-04-18T19:03:21.998Z,95019.56
2023-04-18T19:05:51.557Z,95015.94
2023-04-18T19:08:19.570Z,95015.94
2023-04-18T19:10:48.929Z,95010.22
2023-04-18T19:13:17.011Z,95011.25
2023-04-18T19:15:45.466Z,95023.47
2023-04-18T19:18:13.795Z,95013.16
2023-04-18T19:20:42.069Z,95009.22
2023-04-18T19:23:11.594Z,95020.44
2023-04-18T19:25:39.580Z,95017.53
2023-04-18T19:28:08.087Z,95015.72
2023-04-18T19:30:38.404Z,95004.84
2023-04-18T19:33:06.540Z,94976.72
2023-04-18T19:35:36.476Z,94996.63
2023-04-18T19:38:05.766Z,95009.22
2023-04-18T19:40:35.132Z,95013.16
2023-04-18T19:43:03.268Z,95012.03
2023-04-18T19:45:32.020Z,94969.09
2023-04-18T19:48:00.504Z,95013.16
2023-04-18T19:50:28.625Z,94967.84
2023-04-18T19:52:56.688Z,95016.44
2023-04-18T19:55:25.097Z,95013.72
2023-04-18T19:57:56.759Z,94973.03
2023-04-18T20:00:24.720Z,95010.13
2023-04-18T20:02:53.617Z,94994.63
2023-04-18T20:05:21.982Z,95009.22
2023-04-18T20:07:50.333Z,95008.78
2023-04-18T20:10:21.977Z,95012.59
2023-04-18T20:12:50.192Z,95014.28
2023-04-18T20:15:19.890Z,95007.88
2023-04-18T20:17:47.873Z,95013.72
2023-04-18T20:20:15.813Z,95009.91
2023-04-18T20:22:44.890Z,95006.75
2023-04-18T20:25:12.981Z,95010.13
2023-04-18T20:27:41.019Z,95011.78
2023-04-18T20:30:09.703Z,95008.34
2023-04-18T20:32:39.277Z,95011.47
2023-04-18T20:35:08.420Z,95016.06
2023-04-18T20:37:36.740Z,95002.72
2023-04-18T20:40:08.074Z,95012.81
2023-04-18T20:42:36.746Z,95012.81
2023-04-18T20:45:04.962Z,95015.06
2023-04-18T20:47:33.917Z,95009.09
2023-04-18T20:50:03.230Z,95008.34
2023-04-18T20:52:31.220Z,95010.81
2023-04-18T20:54:59.121Z,95011.91
2023-04-18T20:57:27.038Z,95001.56
2023-04-18T20:59:58.856Z,95006.50
2023-04-18T21:02:27.635Z,94997.97
2023-04-18T21:04:55.607Z,95012.53
2023-04-18T21:07:25.016Z,95001.50
2023-04-18T21:09:52.993Z,95000.63
2023-04-18T21:12:21.016Z,95009.59
2023-04-18T21:14:49.839Z,94983.41
2023-04-18T21:17:19.035Z,95000.97
2023-04-18T21:19:47.307Z,94995.34
2023-04-18T21:22:15.360Z,94999.16
2023-04-18T21:24:45.253Z,95003.09
2023-04-18T21:27:13.208Z,94994.66
2023-04-18T21:29:42.198Z,94998.16
2023-04-18T21:32:10.090Z,94991.88
2023-04-18T21:34:38.019Z,94991.88
2023-04-18T21:37:06.091Z,94984.44
2023-04-18T21:39:34.106Z,94983.00
2023-04-18T21:42:03.441Z,94985.19
2023-04-18T21:44:31.375Z,94978.34
2023-04-18T21:46:59.261Z,94978.47
2023-04-18T21:49:27.206Z,94951.25
2023-04-18T21:51:55.943Z,94981.03
2023-04-18T21:54:23.901Z,94986.06
2023-04-18T21:56:51.880Z,94984.81
2023-04-18T21:59:21.206Z,94994.41
2023-04-18T22:01:49.190Z,94981.13
2023-04-18T22:04:21.015Z,94986.59
2023-04-18T22:06:49.228Z,94988.50
2023-04-18T22:09:19.258Z,94987.22
2023-04-18T22:11:47.389Z,94985.19
2023-04-18T22:14:16.589Z,94990.56
2023-04-18T22:16:46.057Z,94981.47
2023-04-18T22:19:15.079Z,94986.59
2023-04-18T22:21:42.996Z,94984.06
2023-04-18T22:24:11.019Z,94981.22
2023-04-18T22:26:38.924Z,94986.06
2023-04-18T22:29:06.830Z,94982.81
2023-04-18T22:31:34.866Z,94981.88
2023-04-18T22:34:04.866Z,94968.06
2023-04-18T22:36:32.927Z,94981.78
2023-04-18T22:39:01.040Z,94972.59
2023-04-18T22:41:28.980Z,94975.59
2023-04-18T22:43:56.926Z,94962.91
2023-04-18T22:46:27.202Z,94973.03
2023-04-18T22:48:55.546Z,94971.88
2023-04-18T22:51:24.957Z,94965.72
2023-04-18T22:53:52.924Z,94939.66
2023-04-18T22:56:20.868Z,94964.16
2023-04-18T22:58:48.803Z,94957.06
2023-04-18T23:01:16.759Z,94959.56
2023-04-18T23:03:44.937Z,94958.84
2023-04-18T23:06:13.045Z,94953.47
2023-04-18T23:08:42.396Z,94948.78
2023-04-18T23:11:10.784Z,94948.53
2023-04-18T23:13:38.740Z,94946.16
2023-04-18T23:16:07.690Z,94933.72
2023-04-18T23:18:35.766Z,94942.47
2023-04-18T23:21:03.767Z,94940.78
2023-04-18T23:23:31.667Z,94945.38
2023-04-18T23:26:01.037Z,94944.50
2023-04-18T23:28:29.030Z,94950.66
2023-04-18T23:30:57.033Z,94903.16
2023-04-18T23:33:25.052Z,94950.31
2023-04-18T23:35:53.003Z,94943.47
2023-04-18T23:38:20.973Z,94937.88
2023-04-18T23:40:48.899Z,94934.50
2023-04-18T23:43:18.197Z,94943.38
2023-04-18T23:45:46.104Z,94938.09
2023-04-18T23:48:15.234Z,94931.91
2023-04-18T23:50:46.449Z,94934.31
2023-04-18T23:53:14.420Z,94929.91
2023-04-18T23:55:42.337Z,94885.44
2023-04-18T23:58:10.270Z,94919.22
